Time;durP1;ratioP1;P1;durP2;ratioP2;P2;SDS_P1;SDS_P2;PMS_P1;PMS_P2;Temp;Humidity;BMP_temperature;BMP_pressure;BME280_temperature;BME280_humidity;BME280_pressure;Samples;Min_cycle;Max_cycle;Signal;HPM_P1;HPM_P2
2024/01/31 00:00:47;;;;;;;6.70;4.30;;;;;;;-5.67;77.74;97497.26;110455;1275;22325;-79
2024/01/31 00:03:35;;;;;;;8.70;4.40;;;;;;;-5.68;77.53;97495.08;110541;1275;22844;-78
2024/01/31 00:06:04;;;;;;;8.80;5.10;;;;;;;-5.70;77.46;97488.41;110436;1275;22816;-78
2024/01/31 00:08:32;;;;;;;6.10;4.00;;;;;;;-5.70;78.25;97486.70;110511;1275;22188;-78
2024/01/31 00:11:00;;;;;;;11.00;4.60;;;;;;;-5.77;77.85;97485.81;110540;1275;22915;-78
2024/01/31 00:13:29;;;;;;;11.00;5.10;;;;;;;-5.77;78.05;97486.86;110514;1275;23075;-78
2024/01/31 00:15:57;;;;;;;10.70;5.30;;;;;;;-5.76;78.03;97482.52;110366;1275;22290;-78
2024/01/31 00:18:25;;;;;;;12.60;6.00;;;;;;;-5.74;77.99;97482.47;110440;1275;22167;-78
2024/01/31 00:20:53;;;;;;;8.90;4.70;;;;;;;-5.78;78.16;97475.48;110531;1275;22196;-78
2024/01/31 00:23:23;;;;;;;8.90;4.80;;;;;;;-5.76;78.32;97476.32;110550;1275;22246;-78
2024/01/31 00:25:51;;;;;;;10.10;5.30;;;;;;;-5.71;78.43;97478.39;110536;1275;22117;-78
2024/01/31 00:28:19;;;;;;;8.70;4.70;;;;;;;-5.73;78.35;97474.13;110436;1275;23108;-78
2024/01/31 00:30:47;;;;;;;10.40;5.50;;;;;;;-5.69;78.58;97471.73;110556;1275;22113;-78
2024/01/31 00:33:16;;;;;;;7.50;4.50;;;;;;;-5.62;78.67;97470.13;110552;1275;22176;-78
2024/01/31 00:35:44;;;;;;;8.70;5.50;;;;;;;-5.66;78.41;97471.95;110431;1275;22174;-78
2024/01/31 00:38:12;;;;;;;9.70;4.70;;;;;;;-5.67;78.49;97469.44;110565;1275;22207;-78
2024/01/31 00:40:40;;;;;;;8.00;4.90;;;;;;;-5.66;78.87;97466.95;110522;1275;22257;-78
2024/01/31 00:43:09;;;;;;;8.30;4.40;;;;;;;-5.60;78.69;97464.98;110527;1275;22112;-78
2024/01/31 00:45:38;;;;;;;7.80;4.30;;;;;;;-5.57;78.80;97467.39;110564;1275;22337;-79
2024/01/31 00:48:06;;;;;;;8.30;4.40;;;;;;;-5.53;78.68;97466.70;110566;1275;22129;-78
2024/01/31 00:50:35;;;;;;;8.10;4.70;;;;;;;-5.51;78.66;97462.88;110595;1275;22197;-78
2024/01/31 00:53:03;;;;;;;8.70;4.30;;;;;;;-5.46;78.82;97463.61;110548;1275;22647;-79
2024/01/31 00:55:31;;;;;;;10.40;5.10;;;;;;;-5.40;78.94;97464.53;110606;1275;22156;-79
2024/01/31 00:58:00;;;;;;;7.20;4.30;;;;;;;-5.32;78.76;97462.19;110431;1275;22168;-79
2024/01/31 01:00:28;;;;;;;8.00;4.20;;;;;;;-5.33;78.54;97461.64;110562;1275;22832;-78
2024/01/31 01:02:56;;;;;;;7.60;4.20;;;;;;;-5.35;77.91;97462.99;110565;1275;22967;-79
2024/01/31 01:05:25;;;;;;;9.20;4.40;;;;;;;-5.47;77.85;97461.52;110416;1275;22105;-79
2024/01/31 01:07:53;;;;;;;8.50;5.50;;;;;;;-5.45;78.19;97462.83;110578;1275;22278;-78
2024/01/31 01:10:21;;;;;;;11.10;4.90;;;;;;;-5.42;77.97;97464.36;110529;1275;22133;-78
2024/01/31 01:12:49;;;;;;;9.30;4.60;;;;;;;-5.43;77.84;97465.67;110448;1275;22140;-79
2024/01/31 01:15:19;;;;;;;9.00;4.90;;;;;;;-5.41;78.22;97463.42;110440;1275;22285;-79
2024/01/31 01:17:47;;;;;;;7.80;3.80;;;;;;;-5.41;77.73;97465.33;110423;1275;22188;-78
2024/01/31 01:20:15;;;;;;;6.00;3.80;;;;;;;-5.48;77.46;97469.12;110584;1275;23075;-78
2024/01/31 01:22:45;;;;;;;7.40;3.60;;;;;;;-5.53;77.51;97466.17;110564;1275;22857;-79
2024/01/31 01:25:13;;;;;;;6.40;3.70;;;;;;;-5.63;77.18;97465.94;110431;1275;22311;-78
2024/01/31 01:27:50;;;;;;;8.40;4.00;;;;;;;-5.68;77.56;97468.83;110534;1275;22950;-79
2024/01/31 01:30:20;;;;;;;8.60;4.10;;;;;;;-5.65;78.02;97463.38;110519;1275;22142;-78
2024/01/31 01:32:48;;;;;;;7.70;4.30;;;;;;;-5.71;77.51;97460.09;110432;1275;22223;-79
2024/01/31 01:35:17;;;;;;;8.00;4.70;;;;;;;-5.71;78.04;97454.55;110446;1275;22145;-78
2024/01/31 01:37:45;;;;;;;6.00;3.60;;;;;;;-5.70;77.99;97460.11;110529;1275;22945;-79
2024/01/31 01:40:15;;;;;;;8.30;3.90;;;;;;;-5.73;78.05;97452.52;110504;1275;22501;-78
2024/01/31 01:42:44;;;;;;;5.50;3.40;;;;;;;-5.64;78.48;97456.46;110507;1275;22101;-78
2024/01/31 01:45:12;;;;;;;5.10;3.30;;;;;;;-5.57;78.37;97453.91;110449;1275;22345;-78
2024/01/31 01:47:43;;;;;;;8.60;3.20;;;;;;;-5.61;77.64;97452.36;110517;1275;22147;-78
2024/01/31 01:50:11;;;;;;;6.70;3.60;;;;;;;-5.63;77.70;97451.02;110445;1275;22123;-78
2024/01/31 01:52:41;;;;;;;5.60;3.80;;;;;;;-5.66;77.74;97450.82;110520;1275;22117;-79
2024/01/31 01:55:09;;;;;;;7.50;4.30;;;;;;;-5.62;78.20;97448.90;110446;1275;22467;-78
2024/01/31 01:57:39;;;;;;;6.90;3.40;;;;;;;-5.57;78.04;97440.47;110449;1275;22126;-78
2024/01/31 02:00:10;;;;;;;5.90;3.60;;;;;;;-5.61;77.65;97442.46;110459;1275;22111;-78
2024/01/31 02:02:39;;;;;;;6.60;3.60;;;;;;;-5.61;77.81;97439.16;110394;1275;22832;-78
2024/01/31 02:05:07;;;;;;;5.40;3.40;;;;;;;-5.64;77.55;97431.95;110484;1275;22096;-79
2024/01/31 02:07:36;;;;;;;7.00;3.90;;;;;;;-5.77;76.96;97427.52;110520;1275;22192;-78
2024/01/31 02:10:05;;;;;;;10.20;4.30;;;;;;;-5.82;77.38;97424.79;110389;1275;22119;-78
2024/01/31 02:12:34;;;;;;;7.00;3.70;;;;;;;-5.80;77.89;97419.64;110541;1275;22127;-78
2024/01/31 02:15:02;;;;;;;6.50;3.70;;;;;;;-5.82;77.44;97413.81;110504;1275;22649;-78
2024/01/31 02:17:33;;;;;;;6.00;3.60;;;;;;;-5.81;78.05;97413.03;110542;1275;22215;-78
2024/01/31 02:20:01;;;;;;;6.70;4.30;;;;;;;-5.82;77.68;97412.80;110459;1275;22829;-78
2024/01/31 02:22:30;;;;;;;7.40;4.10;;;;;;;-5.97;77.27;97412.24;110414;1275;23095;-78
2024/01/31 02:24:59;;;;;;;7.00;4.10;;;;;;;-6.05;77.71;97413.73;110530;1275;22124;-78
2024/01/31 02:27:28;;;;;;;5.70;3.60;;;;;;;-5.98;78.34;97409.59;110480;1275;23113;-78
2024/01/31 02:29:56;;;;;;;6.80;3.50;;;;;;;-5.94;77.96;97409.17;110431;1275;22118;-78
2024/01/31 02:32:24;;;;;;;6.90;3.60;;;;;;;-5.93;77.93;97405.29;110443;1275;22096;-78
2024/01/31 02:34:52;;;;;;;6.20;3.80;;;;;;;-5.92;77.83;97402.66;110496;1275;22124;-79
2024/01/31 02:37:21;;;;;;;6.40;3.50;;;;;;;-5.96;77.65;97407.66;110442;1275;22122;-78
2024/01/31 02:39:49;;;;;;;6.30;4.10;;;;;;;-5.99;78.06;97409.19;110516;1275;22141;-78
2024/01/31 02:42:18;;;;;;;8.90;4.50;;;;;;;-5.98;78.32;97411.30;110500;1275;22191;-78
2024/01/31 02:44:46;;;;;;;8.50;4.70;;;;;;;-5.95;78.19;97407.77;110577;1275;22184;-78
2024/01/31 02:47:14;;;;;;;10.90;5.10;;;;;;;-6.01;78.47;97409.38;110508;1275;22108;-78
2024/01/31 02:49:42;;;;;;;8.80;4.90;;;;;;;-6.11;78.26;97409.02;110522;1275;22158;-78
2024/01/31 02:52:11;;;;;;;8.60;4.10;;;;;;;-6.16;78.39;97404.19;110512;1275;22112;-78
2024/01/31 02:54:39;;;;;;;5.60;3.40;;;;;;;-6.07;79.06;97403.61;110506;1275;22874;-77
2024/01/31 02:57:07;;;;;;;4.60;3.00;;;;;;;-5.95;79.16;97398.03;110537;1275;22162;-78
2024/01/31 02:59:35;;;;;;;7.30;3.50;;;;;;;-5.85;78.85;97399.53;110535;1275;22205;-78
2024/01/31 03:02:05;;;;;;;5.50;2.90;;;;;;;-5.85;78.03;97396.33;110556;1275;22128;-78
2024/01/31 03:04:33;;;;;;;5.60;3.40;;;;;;;-5.87;78.09;97392.20;110545;1275;22864;-78
2024/01/31 03:07:02;;;;;;;4.40;2.20;;;;;;;-5.87;77.91;97392.05;110511;1275;22106;-78
2024/01/31 03:09:30;;;;;;;5.70;2.80;;;;;;;-5.97;77.21;97388.76;110497;1275;22292;-77
2024/01/31 03:11:58;;;;;;;7.90;2.90;;;;;;;-6.03;77.62;97390.02;110537;1275;23142;-78
2024/01/31 03:14:27;;;;;;;5.50;3.00;;;;;;;-5.97;78.15;97388.77;110545;1275;22934;-78
2024/01/31 03:16:55;;;;;;;4.30;2.40;;;;;;;-5.89;78.40;97385.03;110570;1275;23156;-78
2024/01/31 03:19:24;;;;;;;3.60;2.50;;;;;;;-5.91;77.85;97381.16;110565;1275;22132;-78
2024/01/31 03:21:53;;;;;;;3.70;2.40;;;;;;;-5.97;77.60;97382.40;110554;1275;22764;-78
2024/01/31 03:24:22;;;;;;;4.40;2.60;;;;;;;-6.06;77.55;97383.84;110574;1275;22174;-78
2024/01/31 03:26:50;;;;;;;5.20;3.00;;;;;;;-6.01;78.10;97382.82;110404;1275;22139;-77
2024/01/31 03:29:19;;;;;;;4.70;2.70;;;;;;;-5.96;78.18;97380.25;110461;1275;22173;-78
2024/01/31 03:31:47;;;;;;;4.40;2.50;;;;;;;-5.92;78.16;97380.88;110565;1275;22270;-78
2024/01/31 03:34:16;;;;;;;4.20;2.30;;;;;;;-5.92;77.62;97379.20;110507;1275;22260;-78
2024/01/31 03:36:45;;;;;;;3.80;2.40;;;;;;;-5.96;77.48;97379.73;110549;1275;22998;-78
2024/01/31 03:39:13;;;;;;;4.70;1.80;;;;;;;-5.98;77.68;97379.66;110508;1275;22142;-77
2024/01/31 03:41:44;;;;;;;3.80;2.10;;;;;;;-6.12;76.87;97377.73;110448;1275;22163;-77
2024/01/31 03:44:15;;;;;;;4.50;2.40;;;;;;;-6.26;76.92;97377.36;110434;1275;22090;-78
2024/01/31 03:46:44;;;;;;;3.70;2.40;;;;;;;-6.31;77.61;97374.64;110564;1275;22219;-77
2024/01/31 03:49:12;;;;;;;3.10;1.70;;;;;;;-6.25;78.03;97373.17;110586;1275;22135;-78
2024/01/31 03:51:40;;;;;;;3.80;2.10;;;;;;;-6.23;77.72;97371.94;110537;1275;22125;-77
2024/01/31 03:54:08;;;;;;;3.70;1.90;;;;;;;-6.17;78.16;97370.88;110467;1275;22989;-78
2024/01/31 03:56:36;;;;;;;4.50;2.50;;;;;;;-6.12;78.24;97372.10;110579;1275;22688;-77
2024/01/31 03:59:05;;;;;;;5.30;2.70;;;;;;;-6.14;77.77;97371.95;110561;1275;22871;-77
2024/01/31 04:01:33;;;;;;;3.60;1.70;;;;;;;-6.22;78.07;97367.08;110588;1275;22149;-78
2024/01/31 04:04:01;;;;;;;3.30;2.00;;;;;;;-6.28;77.83;97367.46;110543;1275;23026;-78
2024/01/31 04:06:29;;;;;;;3.90;1.90;;;;;;;-6.23;78.69;97368.73;110558;1275;22196;-77
2024/01/31 04:08:57;;;;;;;2.40;1.40;;;;;;;-6.18;78.20;97369.95;110518;1275;22113;-78
2024/01/31 04:11:31;;;;;;;1.50;1.30;;;;;;;-6.20;77.99;97368.59;110558;1275;22138;-77
2024/01/31 04:14:01;;;;;;;2.10;1.40;;;;;;;-6.13;78.56;97370.31;110540;1275;22131;-78
2024/01/31 04:16:30;;;;;;;2.00;1.20;;;;;;;-6.08;78.11;97369.12;110472;1275;22581;-77
2024/01/31 04:18:58;;;;;;;3.10;1.60;;;;;;;-6.17;77.30;97368.98;110471;1275;22230;-77
2024/01/31 04:21:26;;;;;;;3.10;1.50;;;;;;;-6.22;77.52;97369.45;110545;1275;22117;-77
2024/01/31 04:23:55;;;;;;;2.60;1.70;;;;;;;-6.20;78.03;97368.95;110584;1275;22187;-76
2024/01/31 04:26:23;;;;;;;3.90;1.90;;;;;;;-6.17;77.95;97369.31;110533;1275;22118;-75
2024/01/31 04:28:51;;;;;;;2.70;1.50;;;;;;;-6.18;77.82;97370.93;110548;1275;22093;-75
2024/01/31 04:31:20;;;;;;;2.20;1.30;;;;;;;-6.16;77.92;97372.84;110455;1275;22889;-76
2024/01/31 04:33:48;;;;;;;2.90;1.60;;;;;;;-6.19;77.46;97368.30;110545;1275;22233;-76
2024/01/31 04:36:16;;;;;;;2.20;1.50;;;;;;;-6.24;77.44;97372.04;110478;1275;22117;-76
2024/01/31 04:38:44;;;;;;;1.60;1.10;;;;;;;-6.25;77.73;97374.90;110580;1275;22260;-76
2024/01/31 04:41:12;;;;;;;3.20;1.80;;;;;;;-6.29;77.49;97373.39;110570;1275;22187;-76
2024/01/31 04:43:41;;;;;;;2.90;1.80;;;;;;;-6.32;77.64;97375.89;110538;1275;22198;-77
2024/01/31 04:46:13;;;;;;;3.50;1.80;;;;;;;-6.35;77.75;97370.35;110475;1275;22200;-76
2024/01/31 04:48:41;;;;;;;2.60;1.30;;;;;;;-6.35;77.91;97370.55;110506;1275;22306;-77
2024/01/31 04:51:09;;;;;;;2.70;1.80;;;;;;;-6.38;77.75;97369.48;110579;1275;23079;-77
2024/01/31 04:53:38;;;;;;;4.70;1.80;;;;;;;-6.38;77.89;97370.02;110540;1275;22177;-76
2024/01/31 04:56:09;;;;;;;2.50;1.30;;;;;;;-6.40;77.93;97366.78;110543;1275;23028;-77
2024/01/31 04:58:37;;;;;;;2.40;1.50;;;;;;;-6.38;78.31;97371.01;110490;1275;23002;-76
2024/01/31 05:01:06;;;;;;;5.30;1.80;;;;;;;-6.33;78.12;97365.04;110592;1268;22291;-76
2024/01/31 05:03:34;;;;;;;3.50;2.00;;;;;;;-6.37;77.52;97367.85;110579;1275;22334;-76
2024/01/31 05:06:03;;;;;;;3.30;2.00;;;;;;;-6.47;77.73;97364.52;110616;1275;22111;-76
2024/01/31 05:08:31;;;;;;;3.40;1.00;;;;;;;-6.59;77.46;97371.20;110559;1275;22886;-76
2024/01/31 05:10:59;;;;;;;1.90;1.10;;;;;;;-6.61;77.76;97368.96;110581;1275;22888;-76
2024/01/31 05:13:27;;;;;;;3.20;1.30;;;;;;;-6.58;78.15;97370.73;110534;1275;22194;-77
2024/01/31 05:15:56;;;;;;;1.90;1.20;;;;;;;-6.55;78.01;97367.23;110570;1275;22146;-76
2024/01/31 05:18:24;;;;;;;1.70;1.00;;;;;;;-6.49;78.08;97362.78;110471;1275;22366;-76
2024/01/31 05:20:52;;;;;;;2.50;1.70;;;;;;;-6.49;77.87;97360.11;110568;1275;22130;-77
2024/01/31 05:23:20;;;;;;;2.10;1.30;;;;;;;-6.52;77.61;97363.28;110602;1275;22393;-77
2024/01/31 05:25:49;;;;;;;1.90;1.10;;;;;;;-6.54;77.81;97362.30;110555;1275;22157;-76
2024/01/31 05:28:17;;;;;;;2.00;1.10;;;;;;;-6.53;78.19;97359.27;110562;1275;22913;-76
2024/01/31 05:30:46;;;;;;;2.10;1.30;;;;;;;-6.56;77.99;97361.96;110540;1275;22149;-76
2024/01/31 05:33:14;;;;;;;1.70;1.20;;;;;;;-6.58;77.81;97361.80;110501;1275;22605;-76
2024/01/31 05:35:42;;;;;;;2.50;1.20;;;;;;;-6.55;78.12;97361.86;110596;1275;22133;-76
2024/01/31 05:38:10;;;;;;;2.60;1.40;;;;;;;-6.52;78.19;97358.68;110592;1275;22374;-77
2024/01/31 05:40:39;;;;;;;2.20;1.30;;;;;;;-6.52;78.01;97353.17;110530;1275;22250;-76
2024/01/31 05:43:07;;;;;;;3.40;2.00;;;;;;;-6.56;77.86;97358.73;110541;1275;22884;-77
2024/01/31 05:45:35;;;;;;;2.60;1.60;;;;;;;-6.62;77.90;97357.94;110588;1275;22139;-77
2024/01/31 05:48:04;;;;;;;3.10;2.20;;;;;;;-6.67;78.77;97357.89;110596;1275;22868;-77
2024/01/31 05:50:32;;;;;;;3.40;1.60;;;;;;;-6.74;78.95;97362.86;110619;1275;22156;-77
2024/01/31 05:53:00;;;;;;;2.00;1.10;;;;;;;-6.74;79.18;97362.34;110612;1275;23080;-76
2024/01/31 05:55:29;;;;;;;1.50;1.30;;;;;;;-6.66;79.24;97358.99;110589;1275;22303;-76
2024/01/31 05:57:57;;;;;;;3.60;1.70;;;;;;;-6.57;79.13;97356.10;110561;1275;22236;-75
2024/01/31 06:00:25;;;;;;;2.50;1.40;;;;;;;-6.48;79.09;97361.89;110609;1275;22904;-75
2024/01/31 06:02:53;;;;;;;8.00;4.60;;;;;;;-6.44;78.84;97359.58;110543;1275;22415;-75
2024/01/31 06:05:28;;;;;;;16.80;6.50;;;;;;;-6.48;79.11;97359.84;110554;1275;23002;-76
2024/01/31 06:07:56;;;;;;;7.10;2.60;;;;;;;-6.52;78.72;97363.30;110568;1275;22217;-77
2024/01/31 06:10:25;;;;;;;4.10;2.50;;;;;;;-6.58;78.43;97364.89;110565;1275;22197;-79
2024/01/31 06:12:54;;;;;;;1.50;0.90;;;;;;;-6.62;78.53;97362.70;110561;1275;22894;-78
2024/01/31 06:15:23;;;;;;;3.30;1.90;;;;;;;-6.63;78.69;97359.55;110569;1275;22262;-78
2024/01/31 06:17:52;;;;;;;3.10;1.50;;;;;;;-6.62;78.62;97358.73;110549;1275;22182;-78
2024/01/31 06:20:20;;;;;;;3.60;1.00;;;;;;;-6.64;78.34;97357.64;110554;1262;22273;-78
2024/01/31 06:22:48;;;;;;;2.20;1.00;;;;;;;-6.60;78.68;97355.50;110527;1275;22190;-78
2024/01/31 06:25:16;;;;;;;2.30;1.50;;;;;;;-6.53;78.79;97347.98;110550;1275;22401;-79
2024/01/31 06:27:46;;;;;;;1.60;0.90;;;;;;;-6.54;78.44;97349.94;110539;1275;22239;-79
2024/01/31 06:30:20;;;;;;;1.40;0.70;;;;;;;-6.57;78.88;97348.05;110462;1275;22161;-78
2024/01/31 06:32:48;;;;;;;1.20;0.70;;;;;;;-6.45;79.14;97350.24;110568;1275;22122;-78
2024/01/31 06:35:17;;;;;;;2.80;1.40;;;;;;;-6.38;79.07;97351.80;110584;1275;22186;-78
2024/01/31 06:37:45;;;;;;;5.60;3.00;;;;;;;-6.35;79.42;97351.34;110551;1275;22193;-78
2024/01/31 06:40:14;;;;;;;14.20;6.30;;;;;;;-6.34;79.40;97348.85;110518;1275;22192;-78
2024/01/31 06:42:42;;;;;;;16.10;8.20;;;;;;;-6.38;79.53;97349.80;110551;1275;22369;-79
2024/01/31 06:45:10;;;;;;;33.30;15.40;;;;;;;-6.38;79.25;97349.42;110522;1275;22765;-78
2024/01/31 06:47:42;;;;;;;31.40;15.60;;;;;;;-6.35;79.18;97348.32;110569;1275;22203;-79
2024/01/31 06:50:12;;;;;;;11.50;5.50;;;;;;;-6.31;79.10;97351.16;110520;1275;22994;-76
2024/01/31 06:52:40;;;;;;;11.80;5.30;;;;;;;-6.30;78.83;97346.74;110367;1275;22932;-77
2024/01/31 06:55:09;;;;;;;10.80;5.90;;;;;;;-6.30;78.88;97352.27;110522;1275;22852;-77
2024/01/31 06:57:38;;;;;;;12.90;6.20;;;;;;;-6.28;79.34;97348.96;110602;1275;22207;-76
2024/01/31 07:00:07;;;;;;;4.90;3.30;;;;;;;-6.25;79.45;97347.16;110508;1275;22133;-78
2024/01/31 07:02:36;;;;;;;19.30;9.90;;;;;;;-6.22;79.35;97346.51;110499;1275;23313;-77
2024/01/31 07:05:04;;;;;;;8.10;4.30;;;;;;;-6.15;80.02;97349.79;110618;1275;22118;-77
2024/01/31 07:07:33;;;;;;;11.90;7.40;;;;;;;-6.00;80.52;97346.71;110499;1275;22276;-77
2024/01/31 07:10:02;;;;;;;22.90;11.20;;;;;;;-5.90;80.11;97350.48;110609;1275;22235;-77
2024/01/31 07:12:30;;;;;;;12.10;6.90;;;;;;;-5.82;79.98;97348.00;110569;1275;22101;-78
2024/01/31 07:14:58;;;;;;;21.60;9.80;;;;;;;-5.74;79.95;97347.41;110577;1275;22197;-77
2024/01/31 07:17:27;;;;;;;22.40;11.50;;;;;;;-5.62;79.84;97344.61;110547;1275;22159;-78
2024/01/31 07:19:55;;;;;;;13.40;6.30;;;;;;;-5.48;79.82;97346.52;110577;1275;22291;-77
2024/01/31 07:22:23;;;;;;;14.10;6.50;;;;;;;-5.37;79.84;97343.98;110542;1275;22870;-79
2024/01/31 07:24:52;;;;;;;12.60;6.90;;;;;;;-5.29;79.65;97343.40;110574;1275;22138;-77
2024/01/31 07:27:21;;;;;;;13.50;7.60;;;;;;;-5.20;79.71;97341.61;110533;1275;22118;-78
2024/01/31 07:29:49;;;;;;;14.20;8.30;;;;;;;-5.06;79.62;97339.67;110597;1275;22137;-76
2024/01/31 07:32:18;;;;;;;14.90;9.20;;;;;;;-4.95;79.23;97339.19;110584;1275;22196;-76
2024/01/31 07:34:46;;;;;;;21.40;11.10;;;;;;;-4.84;79.05;97339.81;110546;1275;22124;-77
2024/01/31 07:37:14;;;;;;;20.60;11.40;;;;;;;-4.72;79.04;97337.98;110566;1275;22312;-77
2024/01/31 07:39:42;;;;;;;22.80;10.50;;;;;;;-4.61;79.23;97335.16;110587;1275;22246;-78
2024/01/31 07:42:12;;;;;;;22.60;12.30;;;;;;;-4.50;78.94;97336.41;110581;1275;22118;-78
2024/01/31 07:44:40;;;;;;;25.60;14.10;;;;;;;-4.41;78.82;97335.11;110579;1275;22929;-79
2024/01/31 07:47:09;;;;;;;37.20;20.30;;;;;;;-4.26;79.20;97335.10;110594;1275;22321;-77
2024/01/31 07:49:37;;;;;;;37.70;21.80;;;;;;;-4.02;78.88;97328.40;110603;1274;23018;-78
2024/01/31 07:52:05;;;;;;;23.10;14.70;;;;;;;-3.80;78.44;97331.89;110595;1275;22196;-77
2024/01/31 07:54:33;;;;;;;22.30;11.80;;;;;;;-3.60;77.87;97334.59;110606;1275;22216;-78
2024/01/31 07:57:02;;;;;;;12.20;7.00;;;;;;;-3.40;77.33;97330.97;110589;1275;22218;-78
2024/01/31 07:59:30;;;;;;;19.00;10.10;;;;;;;-3.25;76.40;97330.72;110613;1275;22193;-77
2024/01/31 08:01:59;;;;;;;12.80;8.60;;;;;;;-3.13;76.22;97328.06;110506;1275;22115;-78
2024/01/31 08:04:27;;;;;;;21.10;9.50;;;;;;;-3.03;74.79;97327.09;110586;1275;22145;-79
2024/01/31 08:06:55;;;;;;;14.60;7.80;;;;;;;-2.89;75.85;97325.17;110570;1275;22388;-78
2024/01/31 08:09:24;;;;;;;12.40;7.50;;;;;;;-2.74;75.21;97322.32;110586;1275;22858;-78
2024/01/31 08:11:52;;;;;;;20.10;11.10;;;;;;;-2.61;74.64;97316.73;110560;1275;22146;-78
2024/01/31 08:14:21;;;;;;;15.80;8.90;;;;;;;-2.48;74.60;97318.02;110601;1275;22751;-77
2024/01/31 08:16:51;;;;;;;16.30;7.60;;;;;;;-2.34;73.86;97319.17;110584;1275;22268;-77
2024/01/31 08:19:19;;;;;;;19.90;10.40;;;;;;;-2.23;74.06;97316.90;110564;1275;22195;-77
2024/01/31 08:21:48;;;;;;;15.40;9.00;;;;;;;-2.13;73.72;97313.69;110509;1275;22129;-78
2024/01/31 08:24:16;;;;;;;20.30;10.00;;;;;;;-2.10;73.25;97314.71;110573;1275;22157;-78
2024/01/31 08:26:44;;;;;;;13.70;9.10;;;;;;;-1.99;73.37;97312.92;110561;1275;22592;-78
2024/01/31 08:29:13;;;;;;;18.00;8.60;;;;;;;-1.83;74.02;97313.30;110586;1275;22139;-78
2024/01/31 08:31:53;;;;;;;14.80;8.10;;;;;;;-1.66;73.46;97308.91;110596;1275;22310;-77
2024/01/31 08:34:22;;;;;;;15.90;9.10;;;;;;;-1.56;72.58;97301.70;110554;1275;22811;-77
2024/01/31 08:36:56;;;;;;;10.40;6.60;;;;;;;-1.44;72.49;97295.13;110319;1275;22201;-78
2024/01/31 08:39:24;;;;;;;23.60;14.30;;;;;;;-1.27;72.51;97287.04;110595;1275;22754;-78
2024/01/31 08:41:53;;;;;;;17.60;10.10;;;;;;;-1.14;71.99;97283.45;110536;1275;22140;-81
2024/01/31 08:44:22;;;;;;;17.30;10.70;;;;;;;-1.11;71.51;97279.67;110590;1275;22960;-80
2024/01/31 08:46:51;;;;;;;27.00;18.00;;;;;;;-0.99;71.61;97279.04;110594;1275;22224;-79
2024/01/31 08:49:39;;;;;;;15.90;9.10;;;;;;;-0.87;69.97;97275.90;110639;1275;22228;-77
2024/01/31 08:52:08;;;;;;;12.60;6.90;;;;;;;-0.80;69.84;97269.53;110559;1275;22170;-78
2024/01/31 08:54:36;;;;;;;7.90;4.30;;;;;;;-0.63;70.58;97269.37;110559;1275;22131;-78
2024/01/31 08:57:04;;;;;;;12.10;7.60;;;;;;;-0.52;69.37;97265.60;110582;1275;22144;-79
2024/01/31 08:59:33;;;;;;;13.90;8.80;;;;;;;-0.43;69.85;97264.48;110605;1275;22967;-77
2024/01/31 09:02:01;;;;;;;34.40;22.10;;;;;;;-0.28;69.56;97267.54;110525;1275;22290;-77
2024/01/31 09:04:29;;;;;;;11.00;6.30;;;;;;;-0.20;67.73;97264.96;110547;1265;22889;-76
2024/01/31 09:06:57;;;;;;;12.50;7.00;;;;;;;-0.14;67.55;97261.30;110613;1275;22204;-76
2024/01/31 09:09:26;;;;;;;15.50;11.80;;;;;;;-0.07;67.79;97253.83;110560;1275;22105;-75
2024/01/31 09:11:55;;;;;;;16.30;10.00;;;;;;;-0.03;68.23;97253.52;110526;1275;22127;-76
2024/01/31 09:14:23;;;;;;;15.10;9.00;;;;;;;0.08;68.12;97256.81;110617;1275;22228;-75
2024/01/31 09:16:51;;;;;;;13.90;7.80;;;;;;;0.27;69.07;97251.67;110583;1275;23028;-76
2024/01/31 09:19:19;;;;;;;16.50;8.60;;;;;;;0.50;68.72;97248.10;110564;1275;22206;-77
2024/01/31 09:21:48;;;;;;;17.30;8.00;;;;;;;0.62;68.19;97240.87;110639;1273;23340;-76
2024/01/31 09:24:16;;;;;;;14.90;7.60;;;;;;;0.71;68.07;97241.94;110683;1273;22211;-77
2024/01/31 09:26:44;;;;;;;9.80;6.30;;;;;;;0.85;66.64;97240.52;110684;1269;22906;-79
2024/01/31 09:29:13;;;;;;;8.00;4.20;;;;;;;0.99;66.43;97239.42;110707;1273;22197;-77
2024/01/31 09:31:41;;;;;;;8.20;4.70;;;;;;;1.11;65.01;97241.33;110586;1273;22289;-76
2024/01/31 09:34:09;;;;;;;10.70;4.90;;;;;;;1.18;65.73;97235.91;110729;1273;22178;-77
2024/01/31 09:36:38;;;;;;;3.70;2.40;;;;;;;1.34;65.56;97233.86;110709;1273;22342;-76
2024/01/31 09:39:06;;;;;;;3.60;2.10;;;;;;;1.56;63.91;97230.25;110731;1273;22391;-76
2024/01/31 09:41:34;;;;;;;4.20;2.20;;;;;;;1.77;64.96;97224.93;110725;1273;22140;-76
2024/01/31 09:44:03;;;;;;;5.20;2.80;;;;;;;1.99;65.09;97221.80;110597;1273;22143;-76
2024/01/31 09:46:32;;;;;;;3.60;2.20;;;;;;;2.16;63.68;97215.75;110588;1275;22334;-75
2024/01/31 09:49:01;;;;;;;3.70;2.20;;;;;;;2.26;63.21;97214.05;110611;1275;22214;-76
2024/01/31 09:51:32;;;;;;;4.70;2.40;;;;;;;2.36;61.60;97210.98;110533;1275;22287;-75
2024/01/31 09:54:00;;;;;;;5.30;2.80;;;;;;;2.47;62.36;97206.70;110568;1275;22273;-75
2024/01/31 09:56:32;;;;;;;4.00;2.40;;;;;;;2.60;63.11;97202.51;110581;1275;22136;-76
2024/01/31 09:59:01;;;;;;;4.50;2.60;;;;;;;2.78;62.67;97192.77;110555;1275;22193;-76
2024/01/31 10:01:29;;;;;;;3.90;2.70;;;;;;;2.91;60.95;97187.69;110525;1275;22852;-77
2024/01/31 10:04:00;;;;;;;5.50;2.90;;;;;;;3.05;60.74;97189.59;110549;1275;22202;-76
2024/01/31 10:06:29;;;;;;;5.50;3.30;;;;;;;3.18;60.74;97191.10;110569;1275;22126;-77
2024/01/31 10:08:58;;;;;;;5.90;3.60;;;;;;;3.31;59.93;97190.14;110532;1275;22374;-76
2024/01/31 10:11:30;;;;;;;6.10;4.00;;;;;;;3.39;57.16;97194.63;110547;1275;22141;-75
2024/01/31 10:13:58;;;;;;;5.30;3.90;;;;;;;3.48;58.88;97190.92;110534;1275;22317;-75
2024/01/31 10:16:27;;;;;;;9.20;4.80;;;;;;;3.65;58.94;97189.08;110562;1275;22429;-77
2024/01/31 10:18:56;;;;;;;7.00;4.50;;;;;;;3.90;58.81;97180.66;110579;1275;22195;-77
2024/01/31 10:21:25;;;;;;;7.90;4.70;;;;;;;4.30;58.95;97174.45;110608;1274;22133;-76
2024/01/31 10:23:57;;;;;;;6.80;4.90;;;;;;;4.86;58.19;97165.84;110575;1274;22122;-76
2024/01/31 10:26:26;;;;;;;7.90;4.00;;;;;;;5.32;55.96;97157.55;110550;1274;22098;-76
2024/01/31 10:28:58;;;;;;;6.70;4.50;;;;;;;5.71;54.11;97152.10;110591;1275;22109;-76
2024/01/31 10:31:29;;;;;;;8.20;4.50;;;;;;;6.10;54.34;97148.71;110571;1274;22270;-76
2024/01/31 10:33:59;;;;;;;7.10;4.60;;;;;;;6.47;53.11;97141.71;110615;1275;22647;-76
2024/01/31 10:36:28;;;;;;;6.20;4.50;;;;;;;6.75;50.96;97137.39;110579;1274;22875;-76
2024/01/31 10:39:20;;;;;;;7.10;4.90;;;;;;;7.16;51.20;97132.80;110600;1274;22591;-76
2024/01/31 10:41:50;;;;;;;7.80;4.80;;;;;;;7.47;48.90;97126.21;110596;1274;22133;-76
2024/01/31 10:44:19;;;;;;;7.60;5.50;;;;;;;7.78;47.95;97119.91;110531;1275;22119;-77
2024/01/31 10:46:48;;;;;;;7.70;5.00;;;;;;;8.18;48.59;97116.86;110565;1274;22824;-77
2024/01/31 10:49:16;;;;;;;9.40;6.60;;;;;;;8.57;47.17;97110.63;110541;1274;22135;-77
2024/01/31 10:51:50;;;;;;;7.30;5.80;;;;;;;8.89;46.46;97101.92;110585;1274;22117;-77
2024/01/31 10:54:22;;;;;;;8.60;5.90;;;;;;;9.15;45.75;97099.41;110089;1275;599964;-77
2024/01/31 10:56:51;;;;;;;6.20;4.10;;;;;;;9.38;45.39;97093.33;110612;1275;22146;-76
2024/01/31 10:59:20;;;;;;;6.30;5.00;;;;;;;9.67;44.97;97093.78;110544;1275;22177;-76
2024/01/31 11:01:55;;;;;;;6.00;4.90;;;;;;;9.91;43.95;97085.55;110592;1263;22241;-77
2024/01/31 11:04:23;;;;;;;6.70;4.70;;;;;;;10.14;42.87;97082.39;110616;1274;22270;-77
2024/01/31 11:06:52;;;;;;;12.50;7.30;;;;;;;10.37;42.74;97079.74;110563;1275;22118;-77
2024/01/31 11:09:22;;;;;;;12.80;7.90;;;;;;;10.65;42.60;97074.79;110581;1274;23104;-77
2024/01/31 11:12:04;;;;;;;9.50;6.70;;;;;;;10.70;41.68;97075.52;110576;1274;22168;-77
2024/01/31 11:14:33;;;;;;;10.80;8.50;;;;;;;10.79;41.97;97077.33;110593;1274;22221;-78
2024/01/31 11:17:12;;;;;;;6.20;5.00;;;;;;;11.05;41.21;97073.19;110332;1275;22169;-77
2024/01/31 11:19:52;;;;;;;7.00;4.70;;;;;;;11.27;40.48;97070.26;110525;1274;22154;-77
2024/01/31 11:22:21;;;;;;;5.70;4.30;;;;;;;11.43;40.47;97065.71;110574;1275;22130;-77
2024/01/31 11:24:54;;;;;;;7.00;5.30;;;;;;;11.68;40.16;97068.02;110543;1274;22767;-77
2024/01/31 11:27:23;;;;;;;6.40;5.00;;;;;;;11.83;39.58;97064.88;110617;1274;22133;-77
2024/01/31 11:29:52;;;;;;;6.50;4.90;;;;;;;11.97;39.22;97064.36;110512;1274;22129;-77
2024/01/31 11:32:22;;;;;;;5.40;4.60;;;;;;;12.34;39.67;97057.08;110622;1275;22134;-77